Time;durP1;ratioP1;P1;durP2;ratioP2;P2;SDS_P1;SDS_P2;PMS_P1;PMS_P2;Temp;Humidity;BMP_temperature;BMP_pressure;BME280_temperature;BME280_humidity;BME280_pressure;Samples;Min_cycle;Max_cycle;Signal;HPM_P1;HPM_P2
2023/09/06 00:00:32;;;;;;;11.52;6.20;;;18.80;99.90;;;;;;5070564;28;20055;-73
2023/09/06 00:02:58;;;;;;;8.93;7.05;;;18.80;99.90;;;;;;5071983;28;20098;-74
2023/09/06 00:05:25;;;;;;;8.75;6.22;;;18.80;99.90;;;;;;5065245;28;20049;-74
2023/09/06 00:07:51;;;;;;;9.68;6.55;;;18.80;99.90;;;;;;5060879;28;20041;-74
2023/09/06 00:10:17;;;;;;;9.95;6.30;;;18.80;99.90;;;;;;5067349;28;20136;-73
2023/09/06 00:12:45;;;;;;;8.90;6.25;;;18.80;99.90;;;;;;5059771;28;20400;-74
2023/09/06 00:15:12;;;;;;;9.73;6.30;;;18.70;99.90;;;;;;5061889;28;20063;-73
2023/09/06 00:17:38;;;;;;;7.72;6.03;;;18.70;99.90;;;;;;5061549;28;20045;-73
2023/09/06 00:20:21;;;;;;;12.13;6.45;;;18.70;99.90;;;;;;5070223;28;20036;-74
2023/09/06 00:22:55;;;;;;;7.45;6.30;;;18.70;99.90;;;;;;5072353;28;20037;-74
2023/09/06 00:25:21;;;;;;;11.13;6.63;;;18.60;99.90;;;;;;5071962;28;20090;-74
2023/09/06 00:27:50;;;;;;;8.52;6.07;;;18.60;99.90;;;;;;5063219;28;20098;-74
2023/09/06 00:30:16;;;;;;;12.10;6.95;;;18.60;99.90;;;;;;5063612;28;20048;-74
2023/09/06 00:32:41;;;;;;;7.88;6.15;;;18.60;99.90;;;;;;5072047;28;20051;-74
2023/09/06 00:35:07;;;;;;;8.70;5.95;;;18.50;99.90;;;;;;5071516;28;20044;-74
2023/09/06 00:37:37;;;;;;;13.68;6.25;;;18.50;99.90;;;;;;5045394;28;20060;-74
2023/09/06 00:40:21;;;;;;;9.15;5.93;;;18.40;99.90;;;;;;5062355;28;20036;-74
2023/09/06 00:42:59;;;;;;;8.50;5.68;;;18.40;99.90;;;;;;5063899;28;20056;-73
2023/09/06 00:45:29;;;;;;;8.23;6.40;;;18.40;99.90;;;;;;5061920;28;20048;-74
2023/09/06 00:47:58;;;;;;;9.18;5.95;;;18.40;99.90;;;;;;5071820;28;20086;-73
2023/09/06 00:50:26;;;;;;;10.38;6.30;;;18.30;99.90;;;;;;5060729;28;20037;-73
2023/09/06 00:52:52;;;;;;;9.43;7.00;;;18.30;99.90;;;;;;5071710;28;20445;-74
2023/09/06 00:55:19;;;;;;;10.68;6.65;;;18.30;99.90;;;;;;5071707;28;20123;-73
2023/09/06 00:57:46;;;;;;;10.80;6.25;;;18.30;99.90;;;;;;5071656;28;20056;-73
2023/09/06 01:00:17;;;;;;;9.60;6.45;;;18.20;99.90;;;;;;5066573;28;20044;-73
2023/09/06 01:02:44;;;;;;;12.43;6.60;;;18.20;99.90;;;;;;5068587;28;20159;-73
2023/09/06 01:05:10;;;;;;;10.23;5.95;;;18.20;99.90;;;;;;5070056;28;20385;-73
2023/09/06 01:07:38;;;;;;;9.43;6.60;;;18.10;99.90;;;;;;5062842;28;20065;-73
2023/09/06 01:10:04;;;;;;;10.25;6.40;;;18.10;99.90;;;;;;5067740;28;20052;-73
2023/09/06 01:12:30;;;;;;;10.13;6.63;;;18.10;99.90;;;;;;5063987;28;20055;-73
2023/09/06 01:14:56;;;;;;;11.98;6.97;;;18.10;99.90;;;;;;5061434;28;20123;-74
2023/09/06 01:17:24;;;;;;;11.52;7.43;;;18.10;99.90;;;;;;5071370;28;20725;-74
2023/09/06 01:20:00;;;;;;;7.93;6.90;;;18.00;99.90;;;;;;5062110;28;20049;-73
2023/09/06 01:22:34;;;;;;;7.85;6.32;;;18.00;99.90;;;;;;5059625;28;20052;-73
2023/09/06 01:25:00;;;;;;;8.25;6.65;;;18.10;99.90;;;;;;5071291;28;20056;-73
2023/09/06 01:27:26;;;;;;;9.25;6.78;;;18.10;99.90;;;;;;5061343;28;20048;-73
2023/09/06 01:29:52;;;;;;;9.13;6.70;;;18.10;99.90;;;;;;5061365;28;20036;-73
2023/09/06 01:32:17;;;;;;;9.95;8.05;;;18.10;99.90;;;;;;5054848;28;20079;-74
2023/09/06 01:34:43;;;;;;;8.52;7.18;;;18.10;99.90;;;;;;5064759;28;20052;-73
2023/09/06 01:37:09;;;;;;;9.98;7.60;;;18.00;99.90;;;;;;5066314;28;20230;-74
2023/09/06 01:39:34;;;;;;;12.60;8.50;;;18.10;99.90;;;;;;5051512;28;20061;-73
2023/09/06 01:42:00;;;;;;;11.07;7.35;;;18.10;99.90;;;;;;5070539;28;20127;-73
2023/09/06 01:44:26;;;;;;;12.43;7.18;;;18.10;99.90;;;;;;5070488;28;20078;-74
2023/09/06 01:46:52;;;;;;;11.82;7.30;;;18.10;99.90;;;;;;5070659;28;20416;-73
2023/09/06 01:49:18;;;;;;;12.32;7.22;;;18.10;99.90;;;;;;5069901;28;20044;-73
2023/09/06 01:51:44;;;;;;;10.00;7.15;;;18.10;99.90;;;;;;5061608;28;20040;-73
2023/09/06 01:54:11;;;;;;;11.68;6.75;;;18.00;99.90;;;;;;5060724;28;20055;-73
2023/09/06 01:56:37;;;;;;;11.18;7.68;;;18.00;99.90;;;;;;5060594;28;20105;-72
2023/09/06 01:59:03;;;;;;;8.43;6.63;;;18.00;99.90;;;;;;5070557;28;20036;-73
2023/09/06 02:01:29;;;;;;;10.23;7.03;;;18.00;99.90;;;;;;5060301;28;20059;-73
2023/09/06 02:03:55;;;;;;;10.55;7.57;;;18.00;99.90;;;;;;5070118;28;20420;-74
2023/09/06 02:06:21;;;;;;;8.77;7.25;;;18.10;99.90;;;;;;5043120;28;20139;-74
2023/09/06 02:08:46;;;;;;;10.07;7.53;;;18.00;99.90;;;;;;5070041;28;20178;-74
2023/09/06 02:11:12;;;;;;;13.70;7.28;;;18.00;99.90;;;;;;5066675;28;20085;-74
2023/09/06 02:13:37;;;;;;;13.60;7.22;;;18.10;99.90;;;;;;5065469;28;20040;-73
2023/09/06 02:16:04;;;;;;;12.50;7.88;;;18.10;99.90;;;;;;5043480;28;20063;-75
2023/09/06 02:18:30;;;;;;;9.90;7.63;;;18.10;99.90;;;;;;5047252;28;20399;-74
2023/09/06 02:20:56;;;;;;;11.70;8.45;;;18.10;99.90;;;;;;5059156;28;20112;-73
2023/09/06 02:23:22;;;;;;;11.15;7.40;;;18.10;99.90;;;;;;5069885;28;20376;-74
2023/09/06 02:25:48;;;;;;;11.57;7.53;;;18.10;99.90;;;;;;5062025;28;20047;-73
2023/09/06 02:28:17;;;;;;;9.98;7.70;;;18.10;99.90;;;;;;5058356;28;20045;-73
2023/09/06 02:30:43;;;;;;;10.30;7.10;;;18.10;99.90;;;;;;5070275;28;20048;-74
2023/09/06 02:33:13;;;;;;;8.20;6.45;;;18.10;99.90;;;;;;5058604;28;20095;-74
2023/09/06 02:35:42;;;;;;;10.25;7.30;;;18.10;99.90;;;;;;5061875;28;20505;-74
2023/09/06 02:38:11;;;;;;;8.57;6.38;;;18.10;99.90;;;;;;5069556;28;20111;-74
2023/09/06 02:40:40;;;;;;;14.23;7.35;;;18.10;99.90;;;;;;5069506;28;20040;-74
2023/09/06 02:43:06;;;;;;;11.50;7.10;;;18.10;99.90;;;;;;5060995;28;20057;-74
2023/09/06 02:45:38;;;;;;;10.07;6.68;;;18.10;99.90;;;;;;5066594;28;20044;-74
2023/09/06 02:48:16;;;;;;;11.25;8.68;;;18.10;99.90;;;;;;5069346;28;20120;-73
2023/09/06 02:50:44;;;;;;;8.82;7.25;;;18.10;99.90;;;;;;5069418;28;20062;-73
2023/09/06 02:53:19;;;;;;;13.25;7.43;;;18.10;99.90;;;;;;5059125;28;20048;-73
2023/09/06 02:55:52;;;;;;;12.02;7.88;;;18.10;99.90;;;;;;5069168;28;20048;-74
2023/09/06 02:58:23;;;;;;;11.73;6.88;;;18.10;99.90;;;;;;5069531;28;20053;-74
2023/09/06 03:00:49;;;;;;;8.65;7.13;;;18.10;99.90;;;;;;5067856;28;20040;-73
2023/09/06 03:03:16;;;;;;;13.93;7.40;;;18.10;99.90;;;;;;5068834;28;20045;-74
2023/09/06 03:05:42;;;;;;;7.97;6.43;;;18.10;99.90;;;;;;5059256;28;20056;-73
2023/09/06 03:08:09;;;;;;;12.50;6.68;;;18.10;99.90;;;;;;5066743;28;20076;-73
2023/09/06 03:10:35;;;;;;;8.55;6.80;;;18.10;99.90;;;;;;5035251;28;20067;-73
2023/09/06 03:13:02;;;;;;;12.88;6.70;;;18.10;99.90;;;;;;5065018;28;20052;-73
2023/09/06 03:15:28;;;;;;;10.93;7.07;;;18.10;99.90;;;;;;5058378;28;20049;-73
2023/09/06 03:18:02;;;;;;;8.60;6.40;;;18.00;99.90;;;;;;5059706;28;20048;-74
2023/09/06 03:20:32;;;;;;;8.90;6.88;;;18.00;99.90;;;;;;5052375;28;20383;-73
2023/09/06 03:23:00;;;;;;;10.27;7.05;;;18.00;99.90;;;;;;5048758;28;20426;-73
2023/09/06 03:25:27;;;;;;;9.40;6.68;;;18.00;99.90;;;;;;5054201;28;20102;-74
2023/09/06 03:28:00;;;;;;;11.63;6.93;;;18.00;99.90;;;;;;5057736;28;20037;-74
2023/09/06 03:30:32;;;;;;;8.82;6.18;;;18.00;99.90;;;;;;5067843;28;20053;-73
2023/09/06 03:33:01;;;;;;;8.90;6.88;;;17.90;99.90;;;;;;5066458;28;20037;-73
2023/09/06 03:35:27;;;;;;;8.65;6.65;;;17.90;99.90;;;;;;5057915;28;20047;-73
2023/09/06 03:37:53;;;;;;;8.90;7.15;;;17.90;99.90;;;;;;5057534;28;20045;-73
2023/09/06 03:40:34;;;;;;;9.00;5.90;;;17.80;99.90;;;;;;5063956;28;20048;-73
2023/09/06 03:43:04;;;;;;;12.25;6.13;;;17.80;99.90;;;;;;5066318;28;20059;-73
2023/09/06 03:45:31;;;;;;;10.85;6.32;;;17.80;99.90;;;;;;5069608;28;20064;-73
2023/09/06 03:47:57;;;;;;;9.93;6.03;;;17.80;99.90;;;;;;5066685;28;20087;-73
2023/09/06 03:50:23;;;;;;;8.45;6.80;;;17.80;99.90;;;;;;5043194;28;20060;-73
2023/09/06 03:52:53;;;;;;;9.00;6.20;;;17.80;99.90;;;;;;5062466;28;20036;-74
2023/09/06 03:55:19;;;;;;;8.13;6.20;;;17.80;99.90;;;;;;5070196;28;20062;-74
2023/09/06 03:57:46;;;;;;;12.27;5.88;;;17.80;99.90;;;;;;5045369;28;20045;-74
2023/09/06 04:00:24;;;;;;;8.13;5.82;;;17.70;99.90;;;;;;5067171;28;20072;-74
2023/09/06 04:02:53;;;;;;;8.40;5.97;;;17.70;99.90;;;;;;5068889;28;20491;-73
2023/09/06 04:05:23;;;;;;;7.40;5.53;;;17.70;99.90;;;;;;5062283;28;20407;-74
2023/09/06 04:07:56;;;;;;;10.93;5.40;;;17.70;99.90;;;;;;5058707;28;20041;-74
2023/09/06 04:10:35;;;;;;;7.88;5.70;;;17.70;99.90;;;;;;5065513;28;20043;-74
2023/09/06 04:13:01;;;;;;;7.57;5.68;;;17.60;99.90;;;;;;5071741;28;20394;-74
2023/09/06 04:15:29;;;;;;;6.80;5.30;;;17.70;99.90;;;;;;5064968;28;20053;-74
2023/09/06 04:18:00;;;;;;;8.32;4.88;;;17.70;99.90;;;;;;5069029;28;20041;-74
2023/09/06 04:20:27;;;;;;;7.68;4.70;;;17.70;99.90;;;;;;5066105;28;20131;-73
2023/09/06 04:22:57;;;;;;;9.02;5.35;;;17.60;99.90;;;;;;5041731;28;20047;-73
2023/09/06 04:25:23;;;;;;;9.02;5.30;;;17.60;99.90;;;;;;5068318;28;20041;-73
2023/09/06 04:27:54;;;;;;;7.82;5.80;;;17.60;99.90;;;;;;5069473;28;20033;-73
2023/09/06 04:30:24;;;;;;;5.88;4.88;;;17.50;99.90;;;;;;5062224;28;20111;-74
2023/09/06 04:32:53;;;;;;;10.10;5.57;;;17.50;99.90;;;;;;5071762;28;20033;-73
2023/09/06 04:35:19;;;;;;;8.88;5.35;;;17.50;99.90;;;;;;5060221;28;20052;-74
2023/09/06 04:37:45;;;;;;;8.07;5.50;;;17.40;99.90;;;;;;5058407;28;20503;-74
2023/09/06 04:40:12;;;;;;;5.63;4.68;;;17.50;99.90;;;;;;5066365;28;20080;-74
2023/09/06 04:42:39;;;;;;;9.35;5.72;;;17.50;99.90;;;;;;5061665;28;20052;-74
2023/09/06 04:45:07;;;;;;;9.05;5.35;;;17.50;99.90;;;;;;5079686;28;20083;-75
2023/09/06 04:47:32;;;;;;;10.80;5.10;;;17.50;99.90;;;;;;5046700;28;20060;-74
2023/09/06 04:49:58;;;;;;;8.88;5.22;;;17.50;99.90;;;;;;5045013;28;20090;-74
2023/09/06 04:52:27;;;;;;;6.45;4.78;;;17.40;99.90;;;;;;5044973;28;20044;-75
2023/09/06 04:54:52;;;;;;;9.43;5.22;;;17.40;99.90;;;;;;5082736;28;20406;-74
2023/09/06 04:57:18;;;;;;;7.20;4.85;;;17.40;99.90;;;;;;5064001;28;20059;-75
2023/09/06 04:59:44;;;;;;;8.63;5.38;;;17.30;99.90;;;;;;5063089;28;20059;-74
2023/09/06 05:02:10;;;;;;;7.78;4.72;;;17.30;99.90;;;;;;5045113;28;20107;-73
2023/09/06 05:04:36;;;;;;;7.20;5.10;;;17.30;99.90;;;;;;5075685;28;20499;-74
2023/09/06 05:07:05;;;;;;;8.10;5.25;;;17.20;99.90;;;;;;5042678;28;20121;-76
2023/09/06 05:09:32;;;;;;;7.70;4.85;;;17.20;99.90;;;;;;5061188;28;20048;-74
2023/09/06 05:11:57;;;;;;;5.97;4.70;;;17.20;99.90;;;;;;5052455;28;20488;-73
2023/09/06 05:14:23;;;;;;;6.70;4.88;;;17.20;99.90;;;;;;5064178;28;20054;-74
2023/09/06 05:16:48;;;;;;;8.40;4.82;;;17.20;99.90;;;;;;5079848;28;20079;-74
2023/09/06 05:19:14;;;;;;;6.88;4.53;;;17.20;99.90;;;;;;5083688;28;20041;-74
2023/09/06 05:21:40;;;;;;;10.05;5.00;;;17.20;99.90;;;;;;5079067;28;20503;-74
2023/09/06 05:24:05;;;;;;;6.55;4.90;;;17.20;99.90;;;;;;5085312;28;20059;-73
2023/09/06 05:26:33;;;;;;;8.35;5.20;;;17.20;99.90;;;;;;5061087;28;20040;-74
2023/09/06 05:28:59;;;;;;;7.22;4.50;;;17.20;99.90;;;;;;5078418;28;20078;-74
2023/09/06 05:31:25;;;;;;;7.82;5.15;;;17.30;99.90;;;;;;5081182;28;20044;-73
2023/09/06 05:33:50;;;;;;;6.80;4.78;;;17.20;99.90;;;;;;5064001;28;20032;-73
2023/09/06 05:36:16;;;;;;;8.30;4.88;;;17.30;99.90;;;;;;5062648;28;20063;-73
2023/09/06 05:38:42;;;;;;;6.45;4.50;;;17.30;99.90;;;;;;5045876;28;20113;-72
2023/09/06 05:41:08;;;;;;;14.85;5.30;;;17.30;99.90;;;;;;5078648;28;20055;-75
2023/09/06 05:43:34;;;;;;;6.40;4.60;;;17.30;99.90;;;;;;5080775;28;20070;-73
2023/09/06 05:45:59;;;;;;;8.65;4.90;;;17.30;99.90;;;;;;5081682;28;20130;-75
2023/09/06 05:48:25;;;;;;;6.07;4.50;;;17.30;99.90;;;;;;5063413;28;20076;-74
2023/09/06 05:50:51;;;;;;;6.40;4.75;;;17.40;99.90;;;;;;5051592;28;20052;-73
2023/09/06 05:53:16;;;;;;;8.05;4.82;;;17.40;99.90;;;;;;5075072;28;20449;-74
2023/09/06 05:55:42;;;;;;;7.90;4.78;;;17.40;99.90;;;;;;5076237;28;20124;-73
2023/09/06 05:58:08;;;;;;;7.43;4.15;;;17.50;99.90;;;;;;5081764;28;20115;-73
2023/09/06 06:00:34;;;;;;;6.07;4.47;;;17.50;99.90;;;;;;5073551;28;20505;-73
2023/09/06 06:03:01;;;;;;;9.35;4.70;;;17.50;99.90;;;;;;5063190;28;20073;-73
2023/09/06 06:05:28;;;;;;;9.38;4.57;;;17.60;99.90;;;;;;5081708;28;20127;-72
2023/09/06 06:07:57;;;;;;;6.93;3.88;;;17.60;99.90;;;;;;5061260;28;20521;-73
2023/09/06 06:10:23;;;;;;;9.23;4.55;;;17.60;99.90;;;;;;5077929;28;20518;-73
2023/09/06 06:12:48;;;;;;;5.15;3.95;;;17.70;99.90;;;;;;5078177;28;20044;-74
2023/09/06 06:15:15;;;;;;;6.30;4.20;;;17.70;99.90;;;;;;5063538;28;20047;-73
2023/09/06 06:17:42;;;;;;;8.43;3.78;;;17.80;99.90;;;;;;5063166;28;20514;-74
2023/09/06 06:20:09;;;;;;;6.50;3.75;;;17.70;99.90;;;;;;5079706;28;20040;-74
2023/09/06 06:22:38;;;;;;;11.48;3.45;;;17.80;99.90;;;;;;5075284;28;20123;-72
2023/09/06 06:25:05;;;;;;;6.97;3.40;;;17.90;99.90;;;;;;5080584;28;20044;-74
2023/09/06 06:27:31;;;;;;;7.90;3.90;;;17.90;99.90;;;;;;5078073;28;20052;-74
2023/09/06 06:29:56;;;;;;;8.65;3.90;;;17.90;99.90;;;;;;5059930;28;20082;-73
2023/09/06 06:32:22;;;;;;;8.80;3.85;;;18.00;99.90;;;;;;5043936;28;20060;-73
2023/09/06 06:34:50;;;;;;;5.38;3.10;;;18.00;99.90;;;;;;5063487;28;20103;-73
2023/09/06 06:37:16;;;;;;;6.90;3.65;;;18.10;99.90;;;;;;5080789;28;20608;-73
2023/09/06 06:39:42;;;;;;;4.93;3.35;;;18.10;99.90;;;;;;5057544;28;20038;-73
2023/09/06 06:42:08;;;;;;;6.15;3.53;;;18.20;99.90;;;;;;5044946;28;20054;-74
2023/09/06 06:44:34;;;;;;;6.78;3.47;;;18.20;99.90;;;;;;5079413;28;20044;-74
2023/09/06 06:47:00;;;;;;;5.40;3.00;;;18.30;99.90;;;;;;5042692;28;20059;-74
2023/09/06 06:49:26;;;;;;;5.32;3.03;;;18.40;99.90;;;;;;5060026;28;20838;-73
2023/09/06 06:51:52;;;;;;;6.13;3.10;;;18.40;99.90;;;;;;5059553;28;20040;-74
2023/09/06 06:54:18;;;;;;;5.07;2.92;;;18.50;99.90;;;;;;5077978;28;20143;-73
2023/09/06 06:56:44;;;;;;;5.07;3.33;;;18.60;99.90;;;;;;5061608;28;20163;-73
2023/09/06 06:59:10;;;;;;;6.05;3.17;;;18.60;99.90;;;;;;5062090;28;20495;-74
2023/09/06 07:01:36;;;;;;;4.88;2.88;;;18.80;99.90;;;;;;5080900;28;20131;-72
2023/09/06 07:04:05;;;;;;;3.83;2.50;;;18.80;99.90;;;;;;5058915;28;20032;-73
2023/09/06 07:06:30;;;;;;;6.55;3.10;;;18.90;99.90;;;;;;5066750;28;20048;-73
2023/09/06 07:08:57;;;;;;;7.70;2.80;;;19.00;99.90;;;;;;5065193;28;20056;-73
2023/09/06 07:11:24;;;;;;;4.28;2.53;;;19.10;99.90;;;;;;5072195;28;20036;-72
2023/09/06 07:13:50;;;;;;;5.65;2.85;;;19.20;99.90;;;;;;5081942;28;20114;-72
2023/09/06 07:16:20;;;;;;;4.40;2.63;;;19.20;99.90;;;;;;5079495;28;20058;-72
2023/09/06 07:18:47;;;;;;;4.95;3.00;;;19.40;99.90;;;;;;5066310;28;20077;-72
2023/09/06 07:21:16;;;;;;;4.95;2.70;;;19.40;99.90;;;;;;5063445;28;20108;-73
2023/09/06 07:23:42;;;;;;;5.07;2.63;;;19.60;99.90;;;;;;5063253;28;20049;-73
2023/09/06 07:26:08;;;;;;;4.25;2.40;;;19.70;99.90;;;;;;5082274;28;20059;-74
2023/09/06 07:28:37;;;;;;;5.05;2.35;;;19.80;99.90;;;;;;5065811;28;20048;-77
2023/09/06 07:31:03;;;;;;;6.63;2.65;;;19.90;99.90;;;;;;5084882;28;20504;-77
2023/09/06 07:33:28;;;;;;;6.28;2.80;;;19.90;99.90;;;;;;5063730;28;20142;-74
2023/09/06 07:35:54;;;;;;;6.47;2.42;;;20.00;99.90;;;;;;5065310;28;20044;-75
2023/09/06 07:38:20;;;;;;;7.38;2.33;;;20.20;99.90;;;;;;5064986;28;20056;-74
2023/09/06 07:40:45;;;;;;;4.45;2.38;;;20.30;99.90;;;;;;5063385;28;20170;-75
2023/09/06 07:43:14;;;;;;;7.63;2.45;;;20.40;99.90;;;;;;5060465;28;20518;-74
2023/09/06 07:45:43;;;;;;;4.38;2.63;;;20.50;99.90;;;;;;5029417;28;20101;-74
2023/09/06 07:48:08;;;;;;;4.95;2.15;;;20.60;99.90;;;;;;5042693;28;20049;-75
2023/09/06 07:50:34;;;;;;;4.43;2.00;;;20.70;99.90;;;;;;5043711;28;20041;-75
2023/09/06 07:53:00;;;;;;;4.88;2.03;;;20.80;99.90;;;;;;5046249;28;20604;-75
2023/09/06 07:55:27;;;;;;;4.32;2.00;;;20.90;99.90;;;;;;5063963;28;20053;-74
2023/09/06 07:57:53;;;;;;;8.50;2.20;;;21.00;99.90;;;;;;5045033;28;20044;-74
2023/09/06 08:00:19;;;;;;;4.28;2.22;;;21.20;99.90;;;;;;5061413;28;20471;-75
2023/09/06 08:02:45;;;;;;;9.23;2.05;;;21.30;99.90;;;;;;5063996;28;20041;-73
2023/09/06 08:05:11;;;;;;;3.40;1.73;;;21.40;99.90;;;;;;5046200;28;20117;-75
2023/09/06 08:07:37;;;;;;;3.10;1.65;;;21.60;99.90;;;;;;5062819;28;20028;-75
2023/09/06 08:10:08;;;;;;;4.72;1.85;;;21.80;99.90;;;;;;5063468;28;20483;-75
2023/09/06 08:12:35;;;;;;;6.13;2.03;;;21.90;99.90;;;;;;5045850;28;20588;-76
2023/09/06 08:15:01;;;;;;;3.13;1.92;;;22.10;99.90;;;;;;5043795;28;20155;-77
2023/09/06 08:17:27;;;;;;;3.72;1.85;;;22.30;99.90;;;;;;5049321;28;20120;-75
2023/09/06 08:19:52;;;;;;;2.88;1.67;;;22.50;99.90;;;;;;5063141;28;20047;-75
2023/09/06 08:22:18;;;;;;;5.25;1.50;;;22.70;99.90;;;;;;5045711;28;20052;-76
2023/09/06 08:24:44;;;;;;;5.38;1.80;;;22.90;99.90;;;;;;5066349;28;20119;-75
2023/09/06 08:27:10;;;;;;;8.20;2.20;;;23.10;99.90;;;;;;5062436;28;20127;-74
2023/09/06 08:29:35;;;;;;;2.55;1.65;;;23.40;99.90;;;;;;5053565;28;20045;-75
2023/09/06 08:32:01;;;;;;;4.43;2.05;;;23.50;99.90;;;;;;5053037;28;20040;-74
2023/09/06 08:34:26;;;;;;;4.18;1.98;;;23.80;99.90;;;;;;5042796;28;20064;-76
2023/09/06 08:36:52;;;;;;;3.35;1.77;;;24.00;99.90;;;;;;5047868;28;20474;-76
2023/09/06 08:39:18;;;;;;;5.30;1.90;;;24.20;99.90;;;;;;5042043;28;20043;-75
2023/09/06 08:41:47;;;;;;;4.28;1.83;;;24.40;99.90;;;;;;5062971;28;20380;-74
2023/09/06 08:44:20;;;;;;;5.15;1.70;;;24.60;99.90;;;;;;5043688;28;20049;-74
2023/09/06 08:46:47;;;;;;;6.82;1.90;;;24.80;99.90;;;;;;5050425;28;20053;-73
2023/09/06 08:49:15;;;;;;;6.85;1.55;;;24.90;99.90;;;;;;5052604;28;20059;-74
2023/09/06 08:51:42;;;;;;;5.18;1.60;;;25.00;99.90;;;;;;5064693;28;20045;-74
2023/09/06 08:54:09;;;;;;;3.00;1.70;;;25.30;99.90;;;;;;5036204;28;20047;-73
2023/09/06 08:56:35;;;;;;;3.35;1.90;;;25.40;99.90;;;;;;5044916;28;20048;-74
2023/09/06 08:59:01;;;;;;;5.15;1.52;;;25.60;99.90;;;;;;5062677;28;20502;-74
2023/09/06 09:01:28;;;;;;;5.28;1.70;;;25.70;99.90;;;;;;5064322;28;20045;-73
2023/09/06 09:03:54;;;;;;;4.60;1.85;;;25.80;99.90;;;;;;5044543;28;20049;-78
2023/09/06 09:06:20;;;;;;;2.88;1.50;;;26.00;99.90;;;;;;5047268;28;20052;-74
2023/09/06 09:08:46;;;;;;;3.80;1.70;;;26.20;99.90;;;;;;5056706;28;20124;-74
2023/09/06 09:11:18;;;;;;;5.70;1.70;;;26.40;99.90;;;;;;5054340;28;20040;-75
2023/09/06 09:13:45;;;;;;;6.65;2.20;;;26.60;99.90;;;;;;5056089;28;20094;-74
2023/09/06 09:16:13;;;;;;;5.05;1.80;;;26.80;99.90;;;;;;5050174;28;20056;-73
2023/09/06 09:18:40;;;;;;;5.35;1.92;;;26.90;99.90;;;;;;5056991;28;20116;-73
2023/09/06 09:21:12;;;;;;;4.70;2.47;;;27.00;99.90;;;;;;5043051;28;20388;-74
2023/09/06 09:24:00;;;;;;;4.03;1.80;;;27.20;99.90;;;;;;5059310;28;20095;-73
2023/09/06 09:26:25;;;;;;;3.78;1.60;;;27.30;99.90;;;;;;5040927;28;20056;-74
2023/09/06 09:28:51;;;;;;;5.10;1.50;;;27.50;99.90;;;;;;5062477;28;20430;-73
2023/09/06 09:31:17;;;;;;;5.15;1.73;;;27.60;99.90;;;;;;5060995;28;20442;-73
2023/09/06 09:33:44;;;;;;;2.72;1.63;;;27.70;99.90;;;;;;5047633;28;20067;-73
2023/09/06 09:36:13;;;;;;;5.18;1.90;;;28.00;99.90;;;;;;5059206;28;20091;-73
2023/09/06 09:38:47;;;;;;;3.28;1.38;;;28.20;99.90;;;;;;5053824;28;20087;-73
2023/09/06 09:41:14;;;;;;;4.30;1.65;;;28.30;99.90;;;;;;5061658;28;20037;-74
2023/09/06 09:43:40;;;;;;;8.75;1.42;;;28.50;99.90;;;;;;5048432;28;20507;-74
2023/09/06 09:46:07;;;;;;;6.30;1.75;;;28.60;99.90;;;;;;5035445;28;20118;-73
2023/09/06 09:48:32;;;;;;;2.75;1.33;;;28.70;99.90;;;;;;5070386;28;20051;-73
2023/09/06 09:51:01;;;;;;;3.47;1.60;;;28.80;99.90;;;;;;5052165;28;20044;-72
2023/09/06 09:53:30;;;;;;;6.07;1.70;;;28.90;99.90;;;;;;5061634;28;20056;-73
2023/09/06 09:56:00;;;;;;;4.10;1.65;;;29.00;99.90;;;;;;5061795;28;20048;-74
2023/09/06 09:58:27;;;;;;;3.75;1.77;;;29.00;99.90;;;;;;5070433;28;20044;-74
2023/09/06 10:00:54;;;;;;;9.90;1.40;;;29.10;99.90;;;;;;5060202;28;20053;-74
2023/09/06 10:03:22;;;;;;;4.15;1.60;;;29.40;99.90;;;;;;5066192;28;20506;-75
2023/09/06 10:05:48;;;;;;;7.65;1.80;;;29.50;99.90;;;;;;5062691;28;20048;-73
2023/09/06 10:08:16;;;;;;;6.30;1.75;;;29.60;99.90;;;;;;5070079;28;20044;-75
2023/09/06 10:10:41;;;;;;;4.07;1.60;;;29.80;99.90;;;;;;5060108;28;20055;-73
2023/09/06 10:13:08;;;;;;;4.22;1.80;;;29.90;99.90;;;;;;5060262;28;20040;-74
2023/09/06 10:15:35;;;;;;;3.25;1.45;;;30.00;99.90;;;;;;5065460;28;20101;-74
2023/09/06 10:18:01;;;;;;;6.18;1.60;;;30.10;99.90;;;;;;5069856;28;20056;-74
2023/09/06 10:20:30;;;;;;;5.65;1.70;;;30.10;99.90;;;;;;5060178;28;20040;-75
2023/09/06 10:22:57;;;;;;;4.40;1.75;;;30.20;99.90;;;;;;5043035;28;20105;-73
2023/09/06 10:25:25;;;;;;;7.00;1.60;;;30.30;99.90;;;;;;5069693;28;20055;-75
2023/09/06 10:27:59;;;;;;;3.60;1.88;;;30.50;99.90;;;;;;5064667;28;20041;-75
2023/09/06 10:30:43;;;;;;;4.80;1.40;;;30.50;99.90;;;;;;5069562;28;20117;-74
2023/09/06 10:33:32;;;;;;;5.50;1.33;;;30.70;99.90;;;;;;5069654;28;20083;-73
2023/09/06 10:36:03;;;;;;;4.50;1.42;;;30.80;99.90;;;;;;5054888;28;20129;-72
2023/09/06 10:38:30;;;;;;;2.42;1.30;;;30.70;99.90;;;;;;5059802;28;20049;-73
2023/09/06 10:40:56;;;;;;;2.70;1.25;;;30.90;99.90;;;;;;5069440;28;20054;-74
2023/09/06 10:43:27;;;;;;;3.90;1.60;;;30.90;99.90;;;;;;5069125;28;20049;-73
2023/09/06 10:46:07;;;;;;;3.42;1.60;;;31.00;99.90;;;;;;5069449;28;20491;-74
2023/09/06 10:48:33;;;;;;;2.58;1.50;;;31.10;99.70;;;;;;5069490;28;20048;-74
2023/09/06 10:51:07;;;;;;;6.82;1.67;;;31.20;99.90;;;;;;5069678;28;20067;-73
2023/09/06 10:53:37;;;;;;;5.35;1.67;;;31.30;99.40;;;;;;5059866;28;20051;-74
2023/09/06 10:56:03;;;;;;;3.28;1.20;;;31.30;99.60;;;;;;5069901;28;20043;-74
2023/09/06 10:58:32;;;;;;;2.63;1.50;;;31.40;99.90;;;;;;5063086;28;20491;-75
2023/09/06 11:01:18;;;;;;;3.50;1.60;;;31.50;99.80;;;;;;5060060;28;20123;-73
2023/09/06 11:03:50;;;;;;;3.72;1.40;;;31.50;97.80;;;;;;5069407;28;20384;-73
2023/09/06 11:06:15;;;;;;;5.35;1.30;;;31.60;98.70;;;;;;5069424;28;20571;-74
2023/09/06 11:08:41;;;;;;;6.03;1.33;;;31.60;98.80;;;;;;5063134;28;20127;-75
2023/09/06 11:11:09;;;;;;;5.97;1.30;;;31.70;98.50;;;;;;5059837;28;20086;-75
2023/09/06 11:13:36;;;;;;;2.63;1.30;;;31.70;98.10;;;;;;5068923;28;20055;-76
2023/09/06 11:16:05;;;;;;;6.25;1.35;;;31.60;97.70;;;;;;5069472;28;20445;-74
2023/09/06 11:18:41;;;;;;;3.15;1.35;;;31.60;97.60;;;;;;5069410;28;20098;-74
2023/09/06 11:21:06;;;;;;;4.30;1.27;;;31.80;98.00;;;;;;5069156;28;20048;-74
2023/09/06 11:23:43;;;;;;;5.63;1.55;;;31.80;97.90;;;;;;5069408;28;20056;-75
2023/09/06 11:26:09;;;;;;;2.40;1.20;;;31.90;97.20;;;;;;5059381;28;20045;-74
2023/09/06 11:28:35;;;;;;;4.15;1.40;;;32.00;97.70;;;;;;5070385;28;20036;-74
2023/09/06 11:31:04;;;;;;;4.97;1.40;;;32.10;97.70;;;;;;5062042;28;20101;-74
2023/09/06 11:33:31;;;;;;;2.05;1.20;;;32.20;97.80;;;;;;5069220;28;20496;-75
2023/09/06 11:35:58;;;;;;;2.30;1.25;;;32.30;96.90;;;;;;5059249;28;20083;-74
2023/09/06 11:38:28;;;;;;;2.90;1.25;;;32.30;97.10;;;;;;5059398;28;20048;-74
2023/09/06 11:40:56;;;;;;;3.83;1.48;;;32.40;96.90;;;;;;5068974;28;20040;-74
2023/09/06 11:43:23;;;;;;;3.70;1.30;;;32.40;96.70;;;;;;5059226;28;20110;-74
2023/09/06 11:45:53;;;;;;;2.03;1.38;;;32.50;96.60;;;;;;5068593;28;20496;-73
2023/09/06 11:48:25;;;;;;;3.42;1.10;;;32.60;96.60;;;;;;5069567;28;20052;-78
2023/09/06 11:50:58;;;;;;;4.28;1.20;;;32.60;95.60;;;;;;5072682;28;20514;-75
2023/09/06 11:53:25;;;;;;;2.00;1.00;;;32.60;94.20;;;;;;5072875;28;20487;-74
2023/09/06 11:55:52;;;;;;;2.97;1.23;;;32.50;95.50;;;;;;5072645;28;20044;-75
2023/09/06 11:58:20;;;;;;;1.90;1.00;;;32.60;95.60;;;;;;5072730;28;20056;-73
2023/09/06 12:00:48;;;;;;;4.13;1.20;;;32.70;95.40;;;;;;5072005;28;20131;-74
2023/09/06 12:03:19;;;;;;;2.30;1.15;;;32.80;95.30;;;;;;5062476;28;20052;-73
2023/09/06 12:05:46;;;;;;;2.88;1.20;;;32.90;95.00;;;;;;5062821;28;20071;-74
2023/09/06 12:08:20;;;;;;;2.38;1.40;;;33.10;94.90;;;;;;5072353;28;20084;-74
2023/09/06 12:10:50;;;;;;;3.33;1.40;;;33.10;94.50;;;;;;5062551;28;20460;-74
2023/09/06 12:13:34;;;;;;;4.10;1.50;;;33.20;95.00;;;;;;5072153;28;20067;-75
2023/09/06 12:16:00;;;;;;;;;;;33.30;94.60;;;;;;5062466;28;20040;-74
2023/09/06 12:18:29;;;;;;;4.13;1.20;;;33.30;94.10;;;;;;5066441;28;19928;-74
2023/09/06 12:20:56;;;;;;;3.78;1.27;;;33.20;94.50;;;;;;5068931;28;20505;-74
2023/09/06 12:23:23;;;;;;;7.75;1.45;;;33.30;94.60;;;;;;5053935;28;20044;-74
2023/09/06 12:25:48;;;;;;;4.32;1.40;;;33.30;94.50;;;;;;5071851;28;20043;-74
2023/09/06 12:28:14;;;;;;;3.47;1.33;;;33.30;94.40;;;;;;5061969;28;20052;-73
2023/09/06 12:30:40;;;;;;;5.70;1.30;;;33.40;94.30;;;;;;5065799;28;20491;-74
2023/09/06 12:33:06;;;;;;;6.55;1.08;;;33.40;94.40;;;;;;5071698;28;20125;-74
2023/09/06 12:35:38;;;;;;;2.50;1.60;;;33.60;94.30;;;;;;5071919;28;20084;-74
2023/09/06 12:38:06;;;;;;;2.17;1.25;;;33.60;94.20;;;;;;5071653;28;20044;-74
2023/09/06 12:40:32;;;;;;;2.03;1.05;;;33.50;94.00;;;;;;5103143;22;20102;-73
2023/09/06 12:42:59;;;;;;;4.78;1.00;;;33.50;93.50;;;;;;5041811;28;20492;-74
2023/09/06 12:45:33;;;;;;;2.85;1.15;;;33.60;93.30;;;;;;5041908;28;20049;-74
2023/09/06 12:48:00;;;;;;;1.65;1.00;;;33.60;92.80;;;;;;5051149;28;20411;-75